DLH457 EDDF-KLAX
Flight info
| Callsign | DLH457 |
|---|---|
| Flight time | N/A |
| Altitude | 36000 |
| Route | OBOKA4S OBOKA Z28 DIBIR DCT BUDIP DCT TOPPA DCT LARDI DCT CUTEL DCT ODMIX DCT FORTY DCT PEMOS/M084F360 DCT 64N010W 67N020W 69N030W/M084F380 70N040W 71N060W DCT NADMA/N0488F380 DCT 71N070W 6945N08000W 6730N09000W 64N100W/N0491F400 DCT YMM DCT 55N112W DCT VIPVA DCT YEGGA DCT TWIGY/N0492F410 DCT REO DCT LLC/N0479F400 DCT RYANN/N0479F410 DCT FRA DCT REBRG IRNMN2 |
| Aircraft | A359/H-SDE2E3GHIJ3J4J5LM1ORWXY/LB1D1 |
Departure
| Time | 2026-04-16 09:44 |
|---|---|
| Airport | Frankfurt Main Airport (EDDF) |
Arrival
| Time | N/A |
|---|---|
| Airport | Los Angeles International Airport (KLAX) |
| Time | Latitude | Longitude | Altitude | Speed | Heading |
|---|---|---|---|---|---|
| 2026-04-16 08:55 | 50.04724 | 8.56275 | 362 ft | 0 kts | 339° |
| 2026-04-16 09:06 | 50.04723 | 8.56275 | 349 ft | 0 kts | 339° |
| 2026-04-16 09:16 | 50.04723 | 8.56276 | 354 ft | 0 kts | 339° |
| 2026-04-16 09:21 | 50.04719 | 8.56278 | 358 ft | 3 kts | 339° |
| 2026-04-16 09:21 | 50.04693 | 8.56293 | 358 ft | 4 kts | 339° |
| 2026-04-16 09:21 | 50.04669 | 8.56307 | 361 ft | 4 kts | 333° |
| 2026-04-16 09:22 | 50.04650 | 8.56330 | 362 ft | 4 kts | 294° |
| 2026-04-16 09:22 | 50.04647 | 8.56353 | 362 ft | 3 kts | 253° |
| 2026-04-16 09:22 | 50.04641 | 8.56330 | 363 ft | 4 kts | 249° |
| 2026-04-16 09:22 | 50.04632 | 8.56291 | 363 ft | 4 kts | 249° |
| 2026-04-16 09:23 | 50.04623 | 8.56253 | 361 ft | 4 kts | 249° |
| 2026-04-16 09:23 | 50.04613 | 8.56213 | 359 ft | 4 kts | 249° |
| 2026-04-16 09:23 | 50.04604 | 8.56174 | 359 ft | 4 kts | 249° |
| 2026-04-16 09:23 | 50.04594 | 8.56134 | 361 ft | 4 kts | 249° |
| 2026-04-16 09:24 | 50.04585 | 8.56095 | 359 ft | 4 kts | 249° |
| 2026-04-16 09:24 | 50.04583 | 8.56085 | 360 ft | 0 kts | 249° |
| 2026-04-16 09:25 | 50.04583 | 8.56086 | 360 ft | 0 kts | 249° |
| 2026-04-16 09:26 | 50.04583 | 8.56085 | 360 ft | 0 kts | 249° |
| 2026-04-16 09:26 | 50.04576 | 8.56054 | 357 ft | 7 kts | 252° |
| 2026-04-16 09:26 | 50.04546 | 8.55972 | 361 ft | 9 kts | 217° |
| 2026-04-16 09:27 | 50.04486 | 8.55938 | 359 ft | 9 kts | 197° |
| 2026-04-16 09:27 | 50.04422 | 8.55908 | 358 ft | 10 kts | 197° |
| 2026-04-16 09:27 | 50.04369 | 8.55911 | 361 ft | 6 kts | 158° |
| 2026-04-16 09:27 | 50.04325 | 8.55939 | 358 ft | 7 kts | 158° |
| 2026-04-16 09:28 | 50.04276 | 8.55965 | 359 ft | 6 kts | 175° |
| 2026-04-16 09:28 | 50.04245 | 8.55933 | 359 ft | 5 kts | 227° |
| 2026-04-16 09:28 | 50.04225 | 8.55879 | 360 ft | 6 kts | 249° |
| 2026-04-16 09:28 | 50.04209 | 8.55814 | 356 ft | 7 kts | 249° |
| 2026-04-16 09:29 | 50.04191 | 8.55739 | 361 ft | 8 kts | 249° |
| 2026-04-16 09:29 | 50.04183 | 8.55707 | 361 ft | 0 kts | 249° |
| 2026-04-16 09:35 | 50.04182 | 8.55702 | 358 ft | 2 kts | 249° |
| 2026-04-16 09:35 | 50.04172 | 8.55659 | 351 ft | 7 kts | 249° |
| 2026-04-16 09:35 | 50.04149 | 8.55563 | 359 ft | 12 kts | 250° |
| 2026-04-16 09:36 | 50.04108 | 8.55427 | 361 ft | 12 kts | 225° |
| 2026-04-16 09:36 | 50.04048 | 8.55423 | 357 ft | 9 kts | 164° |
| 2026-04-16 09:36 | 50.03987 | 8.55454 | 361 ft | 10 kts | 161° |
| 2026-04-16 09:36 | 50.03950 | 8.55525 | 355 ft | 8 kts | 94° |
| 2026-04-16 09:37 | 50.03967 | 8.55609 | 360 ft | 9 kts | 70° |
| 2026-04-16 09:37 | 50.03981 | 8.55669 | 360 ft | 9 kts | 70° |
| 2026-04-16 09:37 | 50.04014 | 8.55804 | 359 ft | 11 kts | 70° |
| 2026-04-16 09:37 | 50.04041 | 8.55920 | 360 ft | 12 kts | 69° |
| 2026-04-16 09:38 | 50.04072 | 8.56049 | 361 ft | 13 kts | 69° |
| 2026-04-16 09:38 | 50.04106 | 8.56191 | 361 ft | 15 kts | 70° |
| 2026-04-16 09:38 | 50.04142 | 8.56343 | 359 ft | 16 kts | 69° |
| 2026-04-16 09:38 | 50.04181 | 8.56505 | 360 ft | 16 kts | 70° |
| 2026-04-16 09:39 | 50.04222 | 8.56677 | 361 ft | 17 kts | 69° |
| 2026-04-16 09:39 | 50.04250 | 8.56794 | 361 ft | 18 kts | 70° |
| 2026-04-16 09:39 | 50.04309 | 8.57041 | 356 ft | 19 kts | 70° |
| 2026-04-16 09:39 | 50.04340 | 8.57172 | 356 ft | 19 kts | 70° |
| 2026-04-16 09:40 | 50.04387 | 8.57370 | 361 ft | 20 kts | 70° |
| 2026-04-16 09:40 | 50.04436 | 8.57573 | 356 ft | 20 kts | 69° |
| 2026-04-16 09:40 | 50.04486 | 8.57782 | 360 ft | 21 kts | 69° |
| 2026-04-16 09:40 | 50.04535 | 8.57989 | 360 ft | 21 kts | 70° |
| 2026-04-16 09:41 | 50.04588 | 8.58206 | 360 ft | 22 kts | 69° |
| 2026-04-16 09:41 | 50.04640 | 8.58425 | 355 ft | 19 kts | 69° |
| 2026-04-16 09:41 | 50.04654 | 8.58505 | 358 ft | 6 kts | 88° |
| 2026-04-16 09:41 | 50.04629 | 8.58562 | 358 ft | 8 kts | 145° |
| 2026-04-16 09:42 | 50.04578 | 8.58597 | 360 ft | 8 kts | 159° |
| 2026-04-16 09:42 | 50.04522 | 8.58626 | 359 ft | 8 kts | 173° |
| 2026-04-16 09:42 | 50.04493 | 8.58592 | 359 ft | 5 kts | 232° |
| 2026-04-16 09:42 | 50.04477 | 8.58538 | 358 ft | 6 kts | 248° |
| 2026-04-16 09:43 | 50.04454 | 8.58447 | 361 ft | 16 kts | 250° |
| 2026-04-16 09:43 | 50.04360 | 8.58055 | 361 ft | 68 kts | 250° |
| 2026-04-16 09:43 | 50.04128 | 8.57087 | 353 ft | 122 kts | 250° |
| 2026-04-16 09:43 | 50.03778 | 8.55615 | 362 ft | 167 kts | 250° |
| 2026-04-16 09:44 | 50.03353 | 8.53892 | 931 ft | 163 kts | 246° |
| 2026-04-16 09:44 | 50.02951 | 8.52260 | 1522 ft | 167 kts | 249° |
| 2026-04-16 09:44 | 50.02683 | 8.50434 | 1706 ft | 185 kts | 268° |
| 2026-04-16 09:44 | 50.02772 | 8.48353 | 1952 ft | 200 kts | 275° |
| 2026-04-16 09:45 | 50.02929 | 8.46139 | 2341 ft | 209 kts | 275° |
| 2026-04-16 09:45 | 50.02949 | 8.43854 | 2834 ft | 215 kts | 263° |
| 2026-04-16 09:45 | 50.02704 | 8.41465 | 3133 ft | 232 kts | 259° |
| 2026-04-16 09:45 | 50.02391 | 8.38927 | 3505 ft | 243 kts | 259° |
| 2026-04-16 09:46 | 50.02074 | 8.36336 | 4072 ft | 247 kts | 259° |
| 2026-04-16 09:46 | 50.01753 | 8.33676 | 4608 ft | 252 kts | 259° |
| 2026-04-16 09:46 | 50.01433 | 8.30992 | 5167 ft | 255 kts | 259° |
| 2026-04-16 09:46 | 50.01335 | 8.28231 | 5716 ft | 259 kts | 277° |
| 2026-04-16 09:47 | 50.01878 | 8.25571 | 6335 ft | 260 kts | 294° |
| 2026-04-16 09:47 | 50.02642 | 8.23018 | 6955 ft | 260 kts | 294° |
| 2026-04-16 09:47 | 50.03408 | 8.20451 | 7488 ft | 263 kts | 294° |
| 2026-04-16 09:47 | 50.04163 | 8.17881 | 8025 ft | 266 kts | 293° |
| 2026-04-16 09:48 | 50.04940 | 8.15224 | 8607 ft | 268 kts | 293° |
| 2026-04-16 09:48 | 50.05746 | 8.12588 | 9182 ft | 271 kts | 298° |
| 2026-04-16 09:48 | 50.06828 | 8.10166 | 9749 ft | 274 kts | 307° |
| 2026-04-16 09:48 | 50.08015 | 8.07878 | 10335 ft | 276 kts | 308° |
| 2026-04-16 09:49 | 50.09246 | 8.05507 | 10639 ft | 288 kts | 308° |
| 2026-04-16 09:49 | 50.10525 | 8.03031 | 10894 ft | 301 kts | 307° |
| 2026-04-16 09:49 | 50.11866 | 8.00425 | 11132 ft | 314 kts | 307° |
| 2026-04-16 09:49 | 50.13259 | 7.97717 | 11392 ft | 326 kts | 307° |
| 2026-04-16 09:50 | 50.14698 | 7.94917 | 11659 ft | 337 kts | 307° |
| 2026-04-16 09:50 | 50.16180 | 7.92032 | 12066 ft | 343 kts | 307° |
| 2026-04-16 09:50 | 50.17675 | 7.89117 | 12536 ft | 346 kts | 307° |
| 2026-04-16 09:50 | 50.19193 | 7.86151 | 13005 ft | 349 kts | 307° |
| 2026-04-16 09:51 | 50.20730 | 7.83144 | 13489 ft | 352 kts | 307° |
| 2026-04-16 09:51 | 50.22239 | 7.80191 | 13948 ft | 355 kts | 307° |
| 2026-04-16 09:51 | 50.23778 | 7.77177 | 14366 ft | 357 kts | 307° |
| 2026-04-16 09:51 | 50.25497 | 7.74346 | 14766 ft | 362 kts | 318° |
| 2026-04-16 09:52 | 50.27650 | 7.72280 | 15174 ft | 368 kts | 332° |
| 2026-04-16 09:52 | 50.30003 | 7.70661 | 15594 ft | 371 kts | 334° |
| 2026-04-16 09:52 | 50.32381 | 7.69061 | 16017 ft | 373 kts | 334° |
| 2026-04-16 09:52 | 50.34771 | 7.67439 | 16446 ft | 375 kts | 333° |
| 2026-04-16 09:53 | 50.37166 | 7.65805 | 16880 ft | 377 kts | 333° |
| 2026-04-16 09:53 | 50.39575 | 7.64155 | 17293 ft | 379 kts | 333° |
| 2026-04-16 09:53 | 50.42002 | 7.62488 | 17716 ft | 382 kts | 333° |
| 2026-04-16 09:53 | 50.44436 | 7.60813 | 18112 ft | 384 kts | 333° |
| 2026-04-16 09:54 | 50.46889 | 7.59124 | 18514 ft | 386 kts | 333° |
| 2026-04-16 09:54 | 50.49350 | 7.57428 | 18847 ft | 388 kts | 333° |
| 2026-04-16 09:54 | 50.51832 | 7.55714 | 19227 ft | 389 kts | 333° |
| 2026-04-16 09:54 | 50.54274 | 7.54025 | 19595 ft | 390 kts | 332° |
| 2026-04-16 09:55 | 50.56708 | 7.52041 | 19971 ft | 388 kts | 325° |
| 2026-04-16 09:55 | 50.58934 | 7.49806 | 20342 ft | 388 kts | 323° |
| 2026-04-16 09:55 | 50.61194 | 7.47482 | 20695 ft | 389 kts | 323° |
| 2026-04-16 09:55 | 50.63467 | 7.45146 | 21111 ft | 389 kts | 323° |
| 2026-04-16 09:56 | 50.65729 | 7.42824 | 21533 ft | 390 kts | 323° |
| 2026-04-16 09:56 | 50.68010 | 7.40480 | 21879 ft | 391 kts | 323° |
| 2026-04-16 09:56 | 50.70295 | 7.38131 | 22226 ft | 393 kts | 323° |
| 2026-04-16 09:56 | 50.72579 | 7.35747 | 22566 ft | 393 kts | 321° |
| 2026-04-16 09:57 | 50.74659 | 7.32986 | 22902 ft | 391 kts | 311° |
| 2026-04-16 09:57 | 50.76403 | 7.29704 | 23259 ft | 390 kts | 305° |
| 2026-04-16 09:57 | 50.78015 | 7.26256 | 23584 ft | 390 kts | 303° |
| 2026-04-16 09:57 | 50.79553 | 7.22787 | 23916 ft | 391 kts | 302° |
| 2026-04-16 09:58 | 50.81094 | 7.19241 | 24189 ft | 393 kts | 302° |
| 2026-04-16 09:58 | 50.82646 | 7.15669 | 24477 ft | 395 kts | 302° |
| 2026-04-16 09:58 | 50.84208 | 7.12094 | 24758 ft | 396 kts | 303° |
| 2026-04-16 09:58 | 50.85809 | 7.08456 | 25048 ft | 397 kts | 303° |
| 2026-04-16 09:59 | 50.87376 | 7.04912 | 25313 ft | 399 kts | 303° |
| 2026-04-16 09:59 | 50.88975 | 7.01303 | 25580 ft | 401 kts | 303° |
| 2026-04-16 09:59 | 50.90575 | 6.97693 | 25883 ft | 402 kts | 303° |
| 2026-04-16 09:59 | 50.92187 | 6.94056 | 26161 ft | 403 kts | 303° |
| 2026-04-16 10:00 | 50.93799 | 6.90412 | 26435 ft | 405 kts | 303° |
| 2026-04-16 10:00 | 50.95414 | 6.86753 | 26719 ft | 406 kts | 303° |
| 2026-04-16 10:00 | 50.97035 | 6.83073 | 27033 ft | 407 kts | 302° |
| 2026-04-16 10:01 | 51.00285 | 6.75681 | 27615 ft | 410 kts | 302° |
| 2026-04-16 10:01 | 51.01915 | 6.71967 | 27896 ft | 412 kts | 302° |
| 2026-04-16 10:01 | 51.03554 | 6.68225 | 28196 ft | 413 kts | 302° |